createdAt,value
2022-07-30T00:00:38.582Z,5.10
2022-07-30T00:03:14.947Z,6.00
2022-07-30T00:05:55.622Z,7.00
2022-07-30T00:08:29.918Z,6.80
2022-07-30T00:11:44.072Z,7.10
2022-07-30T00:14:31.825Z,8.90
2022-07-30T00:17:09.574Z,5.30
2022-07-30T00:20:17.403Z,6.50
2022-07-30T00:23:13.186Z,5.50
2022-07-30T00:25:54.565Z,6.00
2022-07-30T00:28:28.118Z,8.00
2022-07-30T00:31:04.798Z,6.70
2022-07-30T00:34:00.572Z,6.20
2022-07-30T00:37:03.848Z,6.20
2022-07-30T00:40:24.942Z,7.00
2022-07-30T00:43:01.472Z,5.40
2022-07-30T00:45:45.397Z,6.10
2022-07-30T00:48:35.618Z,4.90
2022-07-30T00:51:29.544Z,5.70
2022-07-30T00:53:57.189Z,6.00
2022-07-30T00:56:29.591Z,8.90
2022-07-30T00:59:20.736Z,5.60
2022-07-30T01:02:04.840Z,6.70
2022-07-30T01:04:42.314Z,5.80
2022-07-30T01:07:36.493Z,6.50
2022-07-30T01:10:32.770Z,6.90
2022-07-30T01:13:05.699Z,6.30
2022-07-30T01:15:49.654Z,8.00
2022-07-30T01:19:06.236Z,5.60
2022-07-30T01:21:40.293Z,6.50
2022-07-30T01:25:49.016Z,6.40
2022-07-30T01:29:46.563Z,8.30
2022-07-30T01:32:57.356Z,8.60
2022-07-30T01:36:24.879Z,7.80
2022-07-30T01:39:36.012Z,8.10
2022-07-30T01:42:59.021Z,8.20
2022-07-30T01:46:40.099Z,8.40
2022-07-30T01:50:49.370Z,7.60
2022-07-30T02:17:07.452Z,8.80
2022-07-30T02:21:07.494Z,10.10
2022-07-30T02:24:35.670Z,8.80
2022-07-30T02:28:44.646Z,9.50
2022-07-30T02:47:53.894Z,8.20
2022-07-30T02:51:41.875Z,12.40
2022-07-30T03:10:17.450Z,7.90
2022-07-30T03:13:46.906Z,8.00
2022-07-30T03:17:38.185Z,6.90
2022-07-30T03:21:08.603Z,7.70
2022-07-30T03:24:41.059Z,6.90
2022-07-30T03:28:11.561Z,6.50
2022-07-30T03:31:48.664Z,7.60
2022-07-30T03:34:55.257Z,8.50
2022-07-30T03:42:17.539Z,10.60
2022-07-30T04:01:02.207Z,6.60
2022-07-30T04:04:46.714Z,11.00
2022-07-30T04:08:31.808Z,8.40
2022-07-30T04:12:33.253Z,8.40
2022-07-30T04:16:41.535Z,7.20
2022-07-30T04:21:00.291Z,7.00
2022-07-30T05:15:13.994Z,6.30
2022-07-30T05:19:11.218Z,6.60
2022-07-30T05:23:08.763Z,5.70
2022-07-30T05:26:08.047Z,6.10
2022-07-30T05:32:52.391Z,7.20
2022-07-30T05:43:26.750Z,7.60
2022-07-30T05:46:19.363Z,6.10
2022-07-30T05:49:50.240Z,8.00
2022-07-30T05:52:44.584Z,6.40
2022-07-30T05:56:07.181Z,6.60
2022-07-30T05:59:46.940Z,7.70
2022-07-30T06:03:35.109Z,9.20
2022-07-30T06:34:42.461Z,9.10
2022-07-30T06:48:42.562Z,9.20
2022-07-30T06:51:49.296Z,9.20
2022-07-30T06:55:13.078Z,7.20
2022-07-30T06:58:40.796Z,7.00
2022-07-30T07:02:12.313Z,6.80
2022-07-30T07:05:08.402Z,7.00
2022-07-30T07:27:38.215Z,8.70
2022-07-30T07:30:30.170Z,8.60
2022-07-30T07:33:20.371Z,30.70
2022-07-30T07:49:37.647Z,6.10
2022-07-30T07:52:29.476Z,4.90
2022-07-30T07:55:08.202Z,5.70
2022-07-30T07:58:20.811Z,8.10
2022-07-30T08:02:21.533Z,7.10
2022-07-30T08:06:06.027Z,7.10
2022-07-30T08:09:44.434Z,5.90
2022-07-30T08:12:44.467Z,6.50
2022-07-30T08:15:49.591Z,8.50
2022-07-30T08:19:38.735Z,6.50
2022-07-30T08:22:41.443Z,7.40
2022-07-30T08:26:20.071Z,8.20
2022-07-30T08:29:58.203Z,7.10
2022-07-30T08:33:19.843Z,8.60
2022-07-30T08:36:26.034Z,4.60
2022-07-30T09:00:01.049Z,7.40
2022-07-30T09:06:23.120Z,5.70
2022-07-30T09:08:53.908Z,5.20
2022-07-30T09:11:22.204Z,6.10
2022-07-30T09:14:14.048Z,6.40
2022-07-30T09:17:28.853Z,6.00
2022-07-30T09:20:53.421Z,7.10
2022-07-30T09:23:51.093Z,7.90
2022-07-30T09:28:26.751Z,8.00
2022-07-30T09:32:40.373Z,7.50
2022-07-30T09:36:47.410Z,7.10
2022-07-30T09:40:57.541Z,7.50
2022-07-30T10:01:00.427Z,6.50
2022-07-30T10:03:47.878Z,7.90
2022-07-30T10:06:38.328Z,15.90
2022-07-30T10:09:37.386Z,29.20
2022-07-30T10:12:28.041Z,9.60
2022-07-30T10:15:06.079Z,8.10
2022-07-30T10:17:38.819Z,7.50
2022-07-30T10:20:46.910Z,6.50
2022-07-30T10:23:50.643Z,5.70
2022-07-30T10:27:06.158Z,5.30
2022-07-30T10:30:12.421Z,7.70
2022-07-30T10:32:48.142Z,6.90
2022-07-30T10:35:34.234Z,7.50
2022-07-30T10:38:02.949Z,6.70
2022-07-30T10:41:01.749Z,6.50
2022-07-30T10:44:08.986Z,7.10
2022-07-30T10:47:07.225Z,6.40
2022-07-30T10:49:41.070Z,6.60
2022-07-30T10:52:12.289Z,6.50
2022-07-30T10:54:44.587Z,6.80
2022-07-30T10:57:26.627Z,7.40
2022-07-30T11:00:00.127Z,7.50
2022-07-30T11:02:30.564Z,6.60
2022-07-30T11:05:45.378Z,6.80
2022-07-30T11:08:42.987Z,5.80
2022-07-30T11:12:04.973Z,6.50
2022-07-30T11:14:09.419Z,7.90
2022-07-30T11:16:37.032Z,5.10
2022-07-30T11:19:56.620Z,8.40
2022-07-30T11:22:36.147Z,6.10
2022-07-30T11:26:14.190Z,8.50
2022-07-30T11:28:49.594Z,7.10
2022-07-30T11:31:58.687Z,7.40
2022-07-30T11:34:46.915Z,6.90
2022-07-30T11:37:22.339Z,7.00
2022-07-30T11:40:08.188Z,8.70
2022-07-30T11:42:43.458Z,8.30
2022-07-30T11:45:38.049Z,10.00
2022-07-30T11:48:23.333Z,10.30
2022-07-30T11:51:03.690Z,10.30
2022-07-30T11:53:58.811Z,9.00
2022-07-30T11:56:52.274Z,10.00
2022-07-30T11:59:26.082Z,10.00
2022-07-30T12:02:17.209Z,9.50
2022-07-30T12:05:26.334Z,8.90
2022-07-30T12:08:06.871Z,8.10
2022-07-30T12:10:50.004Z,8.00
2022-07-30T12:13:47.972Z,8.00
2022-07-30T12:17:00.181Z,7.90
2022-07-30T12:20:22.527Z,9.50
2022-07-30T12:23:06.463Z,9.30
2022-07-30T12:25:58.989Z,10.20
2022-07-30T12:29:02.049Z,11.30
2022-07-30T12:31:46.992Z,10.60
2022-07-30T12:34:34.536Z,12.60
2022-07-30T12:37:10.050Z,11.10
2022-07-30T12:39:37.646Z,13.00
2022-07-30T12:42:04.960Z,11.30
2022-07-30T12:44:45.457Z,13.40
2022-07-30T12:47:30.732Z,13.00
2022-07-30T12:50:02.649Z,14.40
2022-07-30T12:52:34.491Z,12.60
2022-07-30T12:55:09.100Z,14.50
2022-07-30T12:58:08.584Z,13.10
2022-07-30T13:00:55.135Z,14.70
2022-07-30T13:03:44.015Z,14.40
2022-07-30T13:06:30.250Z,16.40
2022-07-30T13:08:59.571Z,15.50
2022-07-30T13:11:49.036Z,15.50
2022-07-30T13:14:19.434Z,16.20
2022-07-30T13:17:08.885Z,15.80
2022-07-30T13:20:01.020Z,16.70
2022-07-30T13:22:52.644Z,15.10
2022-07-30T13:25:20.034Z,17.00
2022-07-30T13:28:53.656Z,15.60
2022-07-30T13:32:44.339Z,16.90
2022-07-30T13:36:34.845Z,19.40
2022-07-30T13:40:33.166Z,17.30
2022-07-30T13:44:24.762Z,17.60
2022-07-30T14:00:25.942Z,15.80
2022-07-30T14:04:02.198Z,18.70
2022-07-30T14:07:28.790Z,15.90
2022-07-30T14:11:37.110Z,16.90
2022-07-30T14:31:30.080Z,11.50
2022-07-30T14:35:18.157Z,12.70
2022-07-30T14:59:42.242Z,13.70
2022-07-30T15:03:15.435Z,12.80
2022-07-30T15:07:07.864Z,11.60
2022-07-30T15:11:16.678Z,12.50
2022-07-30T15:15:24.199Z,12.40
2022-07-30T16:00:48.337Z,12.60
2022-07-30T16:04:19.911Z,19.90
2022-07-30T16:07:42.679Z,13.30
2022-07-30T16:11:50.238Z,15.30
2022-07-30T16:15:08.827Z,14.40
2022-07-30T16:18:27.053Z,16.90
2022-07-30T16:50:31.343Z,19.60
2022-07-30T16:59:36.431Z,17.50
2022-07-30T17:02:39.970Z,14.60
2022-07-30T17:05:59.514Z,15.60
2022-07-30T17:09:00.285Z,16.60
2022-07-30T17:12:51.041Z,16.60
2022-07-30T17:16:01.003Z,17.30
2022-07-30T17:18:37.451Z,20.20
2022-07-30T17:22:23.627Z,19.70
2022-07-30T17:25:19.999Z,20.80
2022-07-30T17:28:18.985Z,18.40
2022-07-30T17:31:06.808Z,24.60
2022-07-30T17:33:59.177Z,22.30
2022-07-30T17:37:00.649Z,22.50
2022-07-30T17:40:26.733Z,19.80
2022-07-30T17:42:51.757Z,18.90
2022-07-30T17:46:14.335Z,22.50
2022-07-30T17:49:13.100Z,21.90
2022-07-30T17:51:57.194Z,21.80
2022-07-30T17:54:36.900Z,22.50
2022-07-30T17:57:03.828Z,22.60
2022-07-30T17:59:33.243Z,19.10
2022-07-30T18:02:27.513Z,17.00
2022-07-30T18:05:23.317Z,17.00
2022-07-30T18:08:06.587Z,17.90
2022-07-30T18:10:33.717Z,18.50
2022-07-30T18:13:40.690Z,21.10
2022-07-30T18:16:19.301Z,21.70
2022-07-30T18:18:51.468Z,23.70
2022-07-30T18:21:24.456Z,27.90
2022-07-30T18:24:14.270Z,26.40
2022-07-30T18:26:57.352Z,19.60
2022-07-30T18:29:27.177Z,18.30
2022-07-30T18:32:03.440Z,19.20
2022-07-30T18:34:38.104Z,17.20
2022-07-30T18:37:14.887Z,16.80
2022-07-30T18:41:02.477Z,18.60
2022-07-30T18:44:38.120Z,22.90
2022-07-30T18:48:11.414Z,21.70
2022-07-30T18:51:30.280Z,20.40
2022-07-30T18:54:21.487Z,22.50
2022-07-30T18:56:51.021Z,20.80
2022-07-30T19:00:47.981Z,22.20
2022-07-30T19:03:57.679Z,22.20
2022-07-30T19:06:40.481Z,16.90
2022-07-30T19:09:34.053Z,16.70
2022-07-30T19:12:34.303Z,15.50
2022-07-30T19:15:01.546Z,14.60
2022-07-30T19:17:50.826Z,15.70
2022-07-30T19:21:18.609Z,18.40
2022-07-30T19:25:16.988Z,22.00
2022-07-30T20:05:11.408Z,22.10
2022-07-30T20:07:49.919Z,23.10
2022-07-30T20:10:57.750Z,23.80
2022-07-30T20:13:45.272Z,25.00
2022-07-30T20:16:20.896Z,29.10
2022-07-30T20:18:51.487Z,30.10
2022-07-30T20:21:56.406Z,24.70
2022-07-30T20:24:18.810Z,23.60
2022-07-30T20:26:45.252Z,25.90
2022-07-30T20:29:18.803Z,27.20
2022-07-30T20:31:49.811Z,31.10
2022-07-30T20:34:27.501Z,34.40
2022-07-30T20:36:56.665Z,33.00
2022-07-30T20:39:25.402Z,36.50
2022-07-30T20:42:07.042Z,40.60
2022-07-30T20:44:49.430Z,35.80
2022-07-30T20:47:37.420Z,37.00
2022-07-30T20:50:14.181Z,34.00
2022-07-30T20:52:46.937Z,40.70
2022-07-30T20:55:22.027Z,30.30
2022-07-30T20:57:58.075Z,33.40
2022-07-30T21:00:49.344Z,31.90
2022-07-30T21:03:17.537Z,29.10
2022-07-30T21:05:52.628Z,29.50
2022-07-30T21:08:35.648Z,28.60
2022-07-30T21:11:22.541Z,33.00
2022-07-30T21:13:55.042Z,28.10
2022-07-30T21:16:26.670Z,29.30
2022-07-30T21:18:57.536Z,27.60
2022-07-30T21:21:30.634Z,27.20
2022-07-30T21:24:23.841Z,25.30
2022-07-30T21:26:53.523Z,23.30
2022-07-30T21:29:40.479Z,21.90
2022-07-30T21:32:06.900Z,23.00
2022-07-30T21:34:40.132Z,22.90
2022-07-30T21:37:10.044Z,22.50
2022-07-30T21:39:40.915Z,20.70
2022-07-30T21:42:11.393Z,18.30
2022-07-30T21:44:38.582Z,19.60
2022-07-30T21:47:10.009Z,17.40
2022-07-30T21:49:43.047Z,16.90
2022-07-30T21:52:11.639Z,14.90
2022-07-30T21:54:49.643Z,14.80
2022-07-30T21:58:08.096Z,17.60
2022-07-30T22:02:15.831Z,15.40
2022-07-30T22:06:01.810Z,14.20
2022-07-30T22:09:34.412Z,15.00
2022-07-30T22:13:22.597Z,15.80
2022-07-30T22:16:02.781Z,22.80
2022-07-30T22:18:31.655Z,23.00
2022-07-30T22:20:59.949Z,23.70
2022-07-30T22:23:26.733Z,22.50
2022-07-30T22:25:53.460Z,27.50
2022-07-30T22:28:27.030Z,22.50
2022-07-30T22:30:55.526Z,22.60
2022-07-30T22:33:22.188Z,23.10
2022-07-30T22:35:49.946Z,20.80
2022-07-30T22:38:19.555Z,21.80
2022-07-30T22:40:46.413Z,22.70
2022-07-30T22:43:15.921Z,23.20
2022-07-30T22:45:43.585Z,24.00
2022-07-30T22:48:14.082Z,20.50
2022-07-30T22:50:40.907Z,22.00
2022-07-30T22:53:23.425Z,18.40
2022-07-30T22:55:55.413Z,20.00
2022-07-30T22:58:22.040Z,21.50
2022-07-30T23:01:01.686Z,22.90
2022-07-30T23:03:28.211Z,23.40
2022-07-30T23:05:56.624Z,20.40
2022-07-30T23:08:29.380Z,21.90
2022-07-30T23:10:58.854Z,22.80
2022-07-30T23:13:25.336Z,19.80
2022-07-30T23:15:51.774Z,18.50
2022-07-30T23:18:47.178Z,17.10
2022-07-30T23:21:16.775Z,20.60
2022-07-30T23:24:07.283Z,16.90
2022-07-30T23:27:01.658Z,15.80
2022-07-30T23:29:48.814Z,16.70
2022-07-30T23:32:15.207Z,13.70
2022-07-30T23:34:41.727Z,15.30
2022-07-30T23:37:11.772Z,13.80
2022-07-30T23:39:41.142Z,14.70
2022-07-30T23:42:07.910Z,12.90
2022-07-30T23:44:57.998Z,14.70
2022-07-30T23:47:36.963Z,13.30
2022-07-30T23:50:14.078Z,13.30
2022-07-30T23:52:41.726Z,11.60
2022-07-30T23:55:09.410Z,11.50
2022-07-30T23:57:37.684Z,14.80
